Página principal
METAR-TAF:

METAR-TAF

Aeroportos :

Ulaanbaatar, Mongólia

Aeroporto Internacional Chinggis Khaan

latitude: 47-55N, longitude: 106-52E, altura: 1306 m

Observação actual do tempo

O boletim foi feito há 21 minutos, às 00:30 UTC
Vento 2 kt com direcção variável
Temperatura -26°C
Humidade 69%
Pressão 1017 hPa
Visibilidade: 6000 m

METAR: ZMUB 230030Z VRB01MPS 6000NW NSC M26/M30 Q1017 NOSIG RMK QFE655.7 71 NW MO

Hora: 08:51 (00:51 UTC)

Previsão

O boletim foi feito há 2 horas e 11 minutos, às 22:40 UTC
Previsão válida de 23 às 00 UTC a 24 às 06 UTC
Vento 4 kt com direcção variável
Visibilidade: 6000 m
Nuvens dispersasa uma altura de 10000 ft

TAF: ZMUB 222240Z 2300/2406 VRB02MPS 6000 SCT100 TXM11/2307Z TNM26/2323Z

Observações e previsões do tempo de mais de 4000 aeroportos (mensagens METAR e TAF).

As estações disponíveis são os pontos amarelos e vermelhos sobre o mapa.

Mova o rato sobre o mapa para ver o nome da estação.

Depois clique no ponto para visualizar as observações e previsões meteorológicas.

Para alterar o mapa : clique nos botões verdes com uma cruz preta para aumentar o zoom; no botão verde com uma pitada de zoom; ou nas setas verdes para mapas adjacentes.


METAR-TAF: